Terminal Aerodrome Forecast
Issued by NWS St Louis, MO

Home | Current Version | Previous Version | Text Only | Print | Product List | Glossary On
Versions: 1 2 3 4 5 6 7 8 9 10 11 12 13 14 15 16 17 18 19 20 21 22
852
FTUS43 KLSX 110522
TAFCOU
TAF
KCOU 110522Z 1106/1206 07007KT P6SM BKN050
     FM111600 06006KT P6SM SCT150
     FM112300 07005KT P6SM BKN080=

USA.gov is the U.S. government's official web portal to all federal, state and local government web resources and services.